Time;durP1;ratioP1;P1;durP2;ratioP2;P2;SDS_P1;SDS_P2;PMS_P1;PMS_P2;Temp;Humidity;BMP_temperature;BMP_pressure;BME280_temperature;BME280_humidity;BME280_pressure;Samples;Min_cycle;Max_cycle;Signal;HPM_P1;HPM_P2
2022/03/21 12:22:27;;;;;;;27.40;15.85;;;16.70;76.90;;;;;;5132128;27;20432;-75
2022/03/21 12:24:54;;;;;;;26.08;16.13;;;16.70;77.90;;;;;;5119486;27;20051;-76
2022/03/21 12:27:34;;;;;;;24.77;15.35;;;16.70;80.10;;;;;;5122917;27;20055;-76
2022/03/21 12:30:29;;;;;;;28.27;17.48;;;16.80;80.80;;;;;;5115441;27;20050;-75
2022/03/21 12:33:00;;;;;;;25.75;16.52;;;16.80;79.30;;;;;;5098022;27;20040;-77
2022/03/21 12:35:32;;;;;;;26.88;17.13;;;16.90;81.00;;;;;;5088945;28;20520;-76
2022/03/21 12:38:05;;;;;;;23.20;15.45;;;16.80;80.00;;;;;;5107927;27;20128;-75
2022/03/21 12:40:32;;;;;;;23.60;15.65;;;17.00;77.30;;;;;;5107063;27;20182;-76
2022/03/21 12:42:59;;;;;;;28.80;15.85;;;17.10;75.60;;;;;;5088291;27;20152;-75
2022/03/21 12:45:31;;;;;;;26.50;14.95;;;17.20;77.10;;;;;;5104840;27;20035;-76
2022/03/21 12:48:05;;;;;;;27.58;16.77;;;17.20;76.50;;;;;;5103114;27;20039;-75
2022/03/21 12:50:32;;;;;;;;;;;17.30;73.40;;;;;;5087634;27;20047;-74
2022/03/21 12:53:09;;;;;;;25.55;15.18;;;17.30;72.60;;;;;;5105711;27;20001;-76
2022/03/21 12:55:35;;;;;;;22.00;14.90;;;17.40;74.90;;;;;;5104711;27;20043;-75
2022/03/21 12:58:09;;;;;;;22.70;15.45;;;17.50;73.80;;;;;;5109359;27;20134;-74
2022/03/21 13:00:38;;;;;;;25.20;16.08;;;17.60;71.70;;;;;;5105446;27;20796;-75
2022/03/21 13:03:09;;;;;;;26.85;16.10;;;17.60;72.90;;;;;;5098865;27;20680;-75
2022/03/21 13:11:36;;;;;;;23.48;14.38;;;17.70;69.70;;;;;;5101528;27;20052;-75
2022/03/21 13:14:14;;;;;;;26.52;15.57;;;17.80;68.70;;;;;;5105959;27;20147;-73
2022/03/21 13:16:56;;;;;;;25.25;15.80;;;17.70;68.50;;;;;;5104306;27;20083;-72
2022/03/21 13:19:26;;;;;;;22.58;15.50;;;17.80;66.00;;;;;;5106569;27;20053;-74
2022/03/21 13:21:55;;;;;;;23.52;16.48;;;17.70;65.90;;;;;;5105599;27;20052;-75
2022/03/21 13:24:39;;;;;;;26.73;16.75;;;17.60;68.00;;;;;;5102969;27;20039;-74
2022/03/21 13:27:06;;;;;;;;;;;17.50;66.00;;;;;;5110792;27;20043;-75
2022/03/21 13:29:32;;;;;;;26.80;16.05;;;17.40;67.90;;;;;;5105666;27;19928;-75
2022/03/21 13:31:58;;;;;;;25.42;15.82;;;17.30;68.90;;;;;;5085477;28;20787;-74
2022/03/21 13:34:24;;;;;;;25.65;15.20;;;17.40;69.30;;;;;;5084418;27;20494;-75
2022/03/21 13:36:50;;;;;;;27.35;17.02;;;17.50;69.00;;;;;;5088715;28;20078;-75
2022/03/21 13:39:23;;;;;;;25.05;16.02;;;17.60;68.90;;;;;;5074950;28;20126;-75
2022/03/21 13:41:55;;;;;;;22.25;14.38;;;17.60;66.70;;;;;;5092386;28;20055;-75
2022/03/21 13:44:23;;;;;;;27.45;15.30;;;17.60;68.00;;;;;;5090837;28;20103;-75
2022/03/21 13:47:03;;;;;;;25.17;15.02;;;17.70;67.60;;;;;;5079018;27;20054;-75
2022/03/21 13:49:52;;;;;;;28.40;16.02;;;17.70;65.10;;;;;;5090795;28;20039;-74
2022/03/21 13:52:45;;;;;;;21.20;14.13;;;17.80;65.20;;;;;;5091531;27;20069;-75
2022/03/21 13:55:38;;;;;;;23.77;14.85;;;17.70;64.20;;;;;;5089803;28;20052;-73
2022/03/21 13:58:06;;;;;;;23.48;15.68;;;17.70;65.40;;;;;;5087062;28;20059;-73
2022/03/21 14:00:44;;;;;;;24.80;15.05;;;17.80;66.60;;;;;;5071937;28;20044;-73
2022/03/21 14:03:10;;;;;;;23.73;14.65;;;17.90;64.30;;;;;;5075509;28;20055;-74
2022/03/21 14:05:40;;;;;;;22.67;14.40;;;17.90;65.90;;;;;;5089684;28;20039;-74
2022/03/21 14:08:14;;;;;;;22.48;15.20;;;17.90;65.40;;;;;;5094215;28;20055;-74
2022/03/21 14:10:46;;;;;;;29.15;14.80;;;18.00;64.70;;;;;;5087760;28;20039;-74
2022/03/21 14:13:14;;;;;;;24.08;14.93;;;18.00;64.50;;;;;;5076826;28;20054;-74
2022/03/21 14:15:42;;;;;;;22.67;14.73;;;18.00;66.30;;;;;;5077318;28;20028;-74
2022/03/21 14:18:10;;;;;;;25.83;14.35;;;18.00;67.00;;;;;;5088105;28;20492;-74
2022/03/21 14:20:37;;;;;;;24.13;14.80;;;18.00;66.80;;;;;;5089226;27;20102;-74
2022/03/21 14:23:02;;;;;;;23.42;15.18;;;18.00;66.00;;;;;;5093124;28;20075;-73
2022/03/21 14:28:12;;;;;;;25.23;15.82;;;18.00;66.80;;;;;;5092943;28;20051;-78
2022/03/21 14:30:38;;;;;;;26.05;16.23;;;18.00;67.30;;;;;;5093084;28;20050;-76
2022/03/21 14:33:03;;;;;;;26.67;14.77;;;18.00;68.70;;;;;;5092611;28;20046;-76
2022/03/21 14:35:29;;;;;;;25.25;15.57;;;18.00;67.20;;;;;;5086849;28;20074;-76
2022/03/21 14:37:55;;;;;;;23.67;15.35;;;18.10;66.50;;;;;;5074790;28;20056;-76
2022/03/21 14:40:20;;;;;;;26.92;15.15;;;18.00;64.10;;;;;;5069885;28;20048;-77
2022/03/21 14:42:46;;;;;;;23.50;15.15;;;17.80;66.30;;;;;;5073748;28;20121;-77
2022/03/21 14:45:12;;;;;;;25.52;14.43;;;17.70;66.00;;;;;;5084520;27;20048;-77
2022/03/21 14:47:38;;;;;;;22.33;14.07;;;17.60;66.90;;;;;;5091884;28;20091;-78
2022/03/21 14:50:06;;;;;;;24.98;15.32;;;17.50;65.60;;;;;;5076240;28;20056;-77
2022/03/21 14:52:32;;;;;;;28.00;15.93;;;17.40;68.30;;;;;;5070492;28;20048;-78
2022/03/21 14:54:58;;;;;;;26.30;15.43;;;17.40;68.30;;;;;;5087513;27;20105;-76
2022/03/21 14:57:23;;;;;;;24.40;16.33;;;17.30;68.10;;;;;;5094247;28;20128;-76
2022/03/21 14:59:50;;;;;;;30.20;16.63;;;17.30;68.60;;;;;;5087222;28;20047;-77
2022/03/21 15:02:16;;;;;;;26.98;16.50;;;17.20;68.90;;;;;;5092617;27;20132;-77
2022/03/21 15:04:42;;;;;;;28.95;14.45;;;17.10;69.00;;;;;;5091112;28;20576;-78
2022/03/21 15:07:08;;;;;;;22.40;13.63;;;17.10;69.00;;;;;;5089324;28;20185;-73
2022/03/21 15:10:20;;;;;;;20.60;14.20;;;17.00;68.30;;;;;;5087085;28;20035;-75
2022/03/21 15:12:21;;;;;;;25.70;14.00;;;17.00;66.30;;;;;;5070898;28;20083;-75
2022/03/21 15:14:46;;;;;;;27.55;15.15;;;16.90;68.10;;;;;;5085707;28;20547;-76
2022/03/21 15:17:12;;;;;;;26.35;15.93;;;16.80;68.60;;;;;;5091768;28;20092;-75
2022/03/21 15:19:37;;;;;;;29.95;15.48;;;16.70;69.30;;;;;;5088615;28;20123;-77
2022/03/21 15:22:03;;;;;;;28.92;16.27;;;16.70;69.30;;;;;;5085100;28;20116;-77
2022/03/21 15:24:29;;;;;;;27.27;15.85;;;16.60;69.60;;;;;;5090543;28;20048;-77
2022/03/21 15:26:54;;;;;;;27.50;16.35;;;16.60;70.80;;;;;;5095108;28;20051;-77
2022/03/21 15:29:21;;;;;;;27.08;16.10;;;16.60;73.80;;;;;;5093588;28;20221;-77
2022/03/21 15:31:46;;;;;;;25.73;16.13;;;16.50;73.60;;;;;;5096194;28;20564;-78
2022/03/21 15:34:12;;;;;;;23.90;15.20;;;16.50;73.70;;;;;;5096450;28;20043;-78
2022/03/21 15:42:06;;;;;;;27.45;16.15;;;16.30;71.70;;;;;;5095245;28;20047;-77
2022/03/21 15:44:32;;;;;;;28.27;16.00;;;16.30;73.50;;;;;;5091473;27;20043;-75
2022/03/21 15:46:57;;;;;;;30.02;16.17;;;16.20;73.90;;;;;;5075434;28;20609;-75
2022/03/21 15:49:23;;;;;;;26.23;16.75;;;16.20;74.30;;;;;;5091006;28;20043;-75
2022/03/21 15:51:49;;;;;;;30.58;16.10;;;16.20;74.70;;;;;;5089810;28;20083;-75
2022/03/21 15:54:15;;;;;;;32.22;16.42;;;16.10;74.00;;;;;;5088288;28;20040;-75
2022/03/21 15:56:42;;;;;;;28.13;15.32;;;16.20;73.80;;;;;;5088605;28;20394;-75
2022/03/21 15:59:07;;;;;;;25.80;16.30;;;16.20;73.50;;;;;;5090825;28;20040;-75
2022/03/21 16:01:33;;;;;;;23.58;15.15;;;16.20;74.00;;;;;;5084022;28;20048;-75
2022/03/21 16:03:59;;;;;;;26.30;15.13;;;16.20;75.10;;;;;;5069676;28;20531;-75
2022/03/21 16:06:24;;;;;;;32.78;15.50;;;16.20;75.20;;;;;;5070154;28;20075;-74
2022/03/21 16:08:50;;;;;;;26.45;16.08;;;16.10;75.30;;;;;;5079691;28;20044;-74
2022/03/21 16:11:16;;;;;;;29.38;16.42;;;16.20;75.80;;;;;;5089325;28;20044;-75
2022/03/21 16:13:42;;;;;;;26.20;15.98;;;16.10;75.50;;;;;;5089702;28;20066;-75
2022/03/21 16:16:07;;;;;;;25.75;15.68;;;16.10;76.00;;;;;;5088173;28;20043;-75
2022/03/21 16:18:35;;;;;;;28.75;16.88;;;16.10;76.30;;;;;;5091353;28;20039;-75
2022/03/21 16:21:01;;;;;;;28.67;15.95;;;16.00;76.10;;;;;;5096044;28;20052;-75
2022/03/21 16:23:27;;;;;;;31.20;16.98;;;16.00;75.90;;;;;;5094611;28;20039;-75
2022/03/21 16:25:52;;;;;;;28.92;15.43;;;16.00;76.70;;;;;;5096080;28;20047;-77
2022/03/21 16:28:18;;;;;;;28.23;16.45;;;16.00;76.40;;;;;;5080317;28;20406;-73
2022/03/21 16:30:44;;;;;;;26.10;16.15;;;15.90;76.40;;;;;;5094329;28;20037;-74
2022/03/21 16:33:10;;;;;;;25.13;15.32;;;15.80;78.00;;;;;;5089071;28;20048;-74
2022/03/21 16:35:39;;;;;;;28.27;16.20;;;15.80;79.20;;;;;;5080020;28;20043;-74
2022/03/21 16:38:05;;;;;;;27.23;15.68;;;15.70;79.30;;;;;;5096025;28;20732;-74
2022/03/21 16:40:30;;;;;;;24.33;16.00;;;15.70;78.80;;;;;;5081459;28;20046;-74
2022/03/21 16:42:56;;;;;;;29.40;16.52;;;15.70;79.50;;;;;;5093595;28;20073;-74
2022/03/21 16:45:22;;;;;;;28.15;16.23;;;15.70;80.00;;;;;;5089303;28;20055;-74
2022/03/21 16:47:47;;;;;;;29.33;16.45;;;15.60;80.20;;;;;;5083208;28;20211;-74
2022/03/21 16:50:14;;;;;;;29.25;16.30;;;15.60;80.00;;;;;;5095779;28;20036;-72
2022/03/21 16:52:40;;;;;;;28.10;15.85;;;15.60;79.20;;;;;;5092502;28;20047;-78
2022/03/21 16:55:07;;;;;;;27.75;15.93;;;15.60;79.70;;;;;;5092504;28;20039;-79
2022/03/21 16:57:33;;;;;;;30.00;17.73;;;15.50;80.00;;;;;;5090858;28;20051;-78
2022/03/21 16:59:59;;;;;;;27.13;16.42;;;15.50;80.60;;;;;;5092085;28;20039;-77
2022/03/21 17:02:24;;;;;;;28.92;16.08;;;15.40;81.50;;;;;;5086937;28;20051;-77
2022/03/21 17:04:52;;;;;;;26.58;15.95;;;15.30;82.70;;;;;;5086061;28;20156;-76
2022/03/21 17:07:17;;;;;;;35.13;15.65;;;15.20;82.90;;;;;;5095181;28;20798;-76
2022/03/21 17:09:43;;;;;;;25.98;15.07;;;15.10;83.20;;;;;;5090380;28;20054;-76
2022/03/21 17:12:11;;;;;;;25.73;14.90;;;15.10;84.00;;;;;;5093939;28;20057;-77
2022/03/21 17:14:42;;;;;;;26.30;15.57;;;15.00;85.70;;;;;;5093864;28;20168;-76
2022/03/21 17:17:09;;;;;;;24.63;14.27;;;14.90;86.10;;;;;;5099129;27;20047;-77
2022/03/21 17:25:05;;;;;;;;;;;14.50;90.10;;;;;;5068308;28;20060;-77
2022/03/21 17:27:31;;;;;;;21.95;14.25;;;14.40;90.90;;;;;;5095884;28;19924;-76
2022/03/21 17:29:56;;;;;;;25.58;15.45;;;14.30;90.80;;;;;;5074913;28;20055;-76
2022/03/21 17:32:22;;;;;;;28.45;15.68;;;14.10;91.50;;;;;;5097011;27;20042;-76
2022/03/21 17:34:48;;;;;;;30.27;15.95;;;14.00;91.90;;;;;;5096268;28;20144;-77
2022/03/21 17:37:13;;;;;;;25.42;15.10;;;13.90;92.60;;;;;;5097901;27;20111;-76
2022/03/21 17:39:39;;;;;;;28.52;15.63;;;13.80;93.80;;;;;;5092394;28;20040;-79
2022/03/21 17:42:05;;;;;;;33.88;15.35;;;13.70;94.10;;;;;;5097102;27;20051;-81
2022/03/21 17:44:31;;;;;;;28.58;17.10;;;13.60;94.50;;;;;;5093847;27;20078;-82
2022/03/21 17:46:57;;;;;;;25.33;15.50;;;13.50;94.90;;;;;;5091036;28;20476;-82
2022/03/21 17:49:23;;;;;;;24.02;15.02;;;13.40;95.50;;;;;;5078025;28;20048;-81
2022/03/21 17:51:52;;;;;;;24.05;15.00;;;13.30;95.90;;;;;;5088904;28;20054;-82
2022/03/21 17:54:20;;;;;;;30.05;15.35;;;13.20;96.60;;;;;;5091374;27;20798;-82
2022/03/21 17:56:46;;;;;;;29.13;15.93;;;13.10;97.20;;;;;;5096458;28;20576;-82
2022/03/21 17:59:12;;;;;;;29.63;15.25;;;13.00;97.80;;;;;;5099065;28;20051;-82
2022/03/21 18:01:37;;;;;;;29.55;16.27;;;12.90;98.10;;;;;;5093540;28;20696;-82
2022/03/21 18:04:03;;;;;;;27.85;16.02;;;12.80;99.20;;;;;;5090242;28;20481;-79
2022/03/21 18:06:29;;;;;;;27.38;15.07;;;12.70;99.80;;;;;;5090071;28;20044;-79
2022/03/21 18:08:55;;;;;;;28.67;16.13;;;12.50;99.90;;;;;;5092666;27;20050;-79
2022/03/21 18:11:21;;;;;;;26.58;15.35;;;12.50;99.90;;;;;;5072902;28;20159;-79
2022/03/21 18:13:47;;;;;;;25.05;15.38;;;12.30;99.90;;;;;;5072112;28;20044;-79
2022/03/21 18:16:14;;;;;;;26.08;14.88;;;12.20;99.90;;;;;;5092203;28;20070;-79
2022/03/21 18:18:40;;;;;;;27.20;14.48;;;12.20;99.90;;;;;;5089768;28;20079;-79
2022/03/21 18:21:07;;;;;;;25.67;15.05;;;12.00;99.90;;;;;;5093506;28;20089;-80
2022/03/21 18:23:33;;;;;;;30.65;15.68;;;11.90;99.90;;;;;;5088243;28;20064;-79
2022/03/21 18:25:58;;;;;;;26.20;17.17;;;11.90;99.90;;;;;;5087854;28;20194;-79
2022/03/21 18:28:24;;;;;;;26.15;15.48;;;11.80;99.90;;;;;;5088108;28;20128;-76
2022/03/21 18:30:55;;;;;;;28.40;14.43;;;11.70;99.90;;;;;;5094358;28;20555;-77
2022/03/21 18:33:21;;;;;;;28.55;16.05;;;11.60;99.90;;;;;;5077593;28;20051;-79
2022/03/21 18:35:48;;;;;;;29.48;16.88;;;11.50;99.90;;;;;;5084457;28;21000;-78
2022/03/21 18:38:13;;;;;;;28.25;17.13;;;11.50;99.90;;;;;;5074311;28;20063;-77
2022/03/21 18:40:39;;;;;;;29.50;18.60;;;11.40;99.90;;;;;;5094589;28;20039;-78
2022/03/21 18:43:08;;;;;;;32.10;19.73;;;11.40;99.90;;;;;;5069383;28;20773;-78
2022/03/21 18:45:40;;;;;;;31.88;20.27;;;11.30;99.90;;;;;;5073258;28;20039;-78
2022/03/21 18:48:05;;;;;;;37.50;20.85;;;11.80;99.90;;;;;;5091870;28;20047;-78
2022/03/21 18:50:31;;;;;;;33.75;20.85;;;11.20;99.90;;;;;;5086644;27;20480;-78
2022/03/21 18:52:57;;;;;;;38.83;22.95;;;11.20;99.90;;;;;;5087867;27;20126;-78
2022/03/21 18:55:26;;;;;;;36.38;22.02;;;11.10;99.90;;;;;;5078165;28;20047;-78
2022/03/21 18:57:54;;;;;;;41.63;22.13;;;11.10;99.90;;;;;;5093357;27;20049;-79
2022/03/21 19:00:20;;;;;;;36.20;23.80;;;11.00;99.90;;;;;;5072124;28;20497;-79
2022/03/21 19:02:47;;;;;;;38.20;22.92;;;10.90;99.90;;;;;;5083763;27;20142;-79
2022/03/21 19:05:14;;;;;;;39.13;24.80;;;10.90;99.90;;;;;;5066211;28;20158;-79
2022/03/21 19:07:40;;;;;;;36.33;23.30;;;10.80;99.90;;;;;;5070338;28;20755;-79
2022/03/21 19:10:08;;;;;;;37.15;23.20;;;10.70;99.90;;;;;;5092189;28;20059;-78
2022/03/21 19:12:34;;;;;;;37.33;23.15;;;10.70;99.90;;;;;;5084573;28;20052;-78
2022/03/21 19:15:01;;;;;;;40.60;25.23;;;10.60;99.90;;;;;;5088211;28;20100;-78
2022/03/21 19:17:28;;;;;;;36.30;24.23;;;10.50;99.90;;;;;;5072608;28;20134;-80
2022/03/21 19:19:55;;;;;;;38.13;24.27;;;10.50;99.90;;;;;;5071345;28;20126;-79
2022/03/21 19:22:21;;;;;;;38.85;25.55;;;10.80;99.90;;;;;;5084389;28;20559;-79
2022/03/21 19:24:47;;;;;;;42.20;24.38;;;10.40;99.90;;;;;;5069478;28;20040;-78
2022/03/21 19:27:13;;;;;;;36.47;23.55;;;10.30;99.90;;;;;;5087866;28;20043;-79
2022/03/21 19:29:39;;;;;;;36.33;22.23;;;10.30;99.90;;;;;;5092033;28;20039;-80
2022/03/21 19:32:05;;;;;;;37.38;21.63;;;10.20;99.90;;;;;;5080358;28;20793;-81
2022/03/21 19:34:32;;;;;;;35.20;22.00;;;10.20;99.90;;;;;;5089658;27;20939;-80
2022/03/21 19:36:58;;;;;;;32.30;21.95;;;10.10;99.90;;;;;;5086217;27;20067;-80
2022/03/21 19:39:25;;;;;;;36.20;22.58;;;10.10;99.90;;;;;;5075505;28;20477;-80
2022/03/21 19:41:51;;;;;;;35.25;21.63;;;10.00;99.90;;;;;;5092620;28;20051;-80
2022/03/21 19:44:17;;;;;;;34.92;21.48;;;10.00;99.90;;;;;;5074777;28;20043;-79
2022/03/21 19:46:44;;;;;;;35.75;21.50;;;10.00;99.90;;;;;;5074818;28;20047;-80
2022/03/21 19:49:11;;;;;;;31.02;19.55;;;9.90;99.90;;;;;;5092163;28;20124;-80
2022/03/21 19:51:37;;;;;;;34.30;21.17;;;9.90;99.90;;;;;;5081388;28;20039;-80
2022/03/21 19:54:03;;;;;;;35.00;20.30;;;9.80;99.90;;;;;;5070933;28;20123;-78
2022/03/21 19:56:28;;;;;;;33.38;21.00;;;9.80;99.90;;;;;;5081656;28;20592;-82
2022/03/21 19:58:54;;;;;;;31.52;20.02;;;9.70;99.90;;;;;;5089503;28;20060;-80
2022/03/21 20:01:21;;;;;;;34.03;20.75;;;9.70;99.90;;;;;;5092111;28;20050;-83
2022/03/21 20:03:49;;;;;;;34.13;20.48;;;9.70;99.90;;;;;;5088046;28;20726;-80
2022/03/21 20:06:15;;;;;;;34.38;21.00;;;9.60;99.90;;;;;;5082039;28;20048;-80
2022/03/21 20:08:42;;;;;;;30.20;19.35;;;9.50;99.90;;;;;;5088582;28;20048;-80
2022/03/21 20:11:07;;;;;;;35.47;20.65;;;9.50;99.90;;;;;;5071129;28;20047;-80
2022/03/21 20:13:33;;;;;;;32.08;19.48;;;9.40;99.90;;;;;;5093347;28;20107;-80
2022/03/21 20:15:59;;;;;;;33.92;20.13;;;9.40;99.90;;;;;;5095852;28;20058;-78
2022/03/21 20:18:25;;;;;;;33.47;20.20;;;9.30;99.90;;;;;;5091187;28;20039;-80
2022/03/21 20:20:51;;;;;;;33.15;19.77;;;9.30;99.90;;;;;;5072968;28;20163;-80
2022/03/21 20:23:23;;;;;;;34.45;20.25;;;9.20;99.90;;;;;;5092781;28;20058;-80
2022/03/21 20:25:49;;;;;;;31.73;20.52;;;9.20;99.90;;;;;;5080184;28;20051;-80
2022/03/21 20:28:14;;;;;;;34.33;21.50;;;9.10;99.90;;;;;;5076089;28;20055;-80
2022/03/21 20:30:40;;;;;;;33.20;20.42;;;9.00;99.90;;;;;;5092221;28;20063;-79
2022/03/21 20:33:06;;;;;;;39.83;21.38;;;9.00;99.90;;;;;;5088173;28;20043;-80
2022/03/21 20:35:33;;;;;;;34.03;20.17;;;8.90;99.90;;;;;;5096547;28;20138;-80
2022/03/21 20:37:59;;;;;;;38.47;21.00;;;8.90;99.90;;;;;;5097280;28;20047;-80
2022/03/21 20:40:25;;;;;;;32.95;19.30;;;8.90;99.90;;;;;;5092429;28;20047;-80
2022/03/21 20:42:55;;;;;;;32.92;21.40;;;8.80;99.90;;;;;;5105326;27;20061;-80
2022/03/21 20:45:22;;;;;;;34.92;20.98;;;8.70;99.90;;;;;;5096681;27;20411;-80
2022/03/21 20:47:49;;;;;;;35.30;20.60;;;8.70;99.90;;;;;;5099203;28;20052;-80
2022/03/21 20:50:17;;;;;;;30.67;20.20;;;8.60;99.90;;;;;;5080065;28;20048;-80
2022/03/21 20:52:48;;;;;;;33.33;20.95;;;8.60;99.90;;;;;;5096580;28;20051;-80
2022/03/21 20:55:15;;;;;;;36.47;21.48;;;8.50;99.90;;;;;;5100048;28;20046;-80
2022/03/21 20:57:43;;;;;;;34.30;20.48;;;8.50;99.90;;;;;;5101607;28;20040;-80
2022/03/21 21:00:10;;;;;;;34.50;21.73;;;8.40;99.90;;;;;;5087906;28;20059;-80
2022/03/21 21:02:38;;;;;;;42.30;22.33;;;8.40;99.90;;;;;;5097330;28;20078;-80
2022/03/21 21:05:05;;;;;;;33.92;21.27;;;8.40;99.90;;;;;;5102295;28;20242;-81
2022/03/21 21:07:30;;;;;;;38.10;23.15;;;8.30;99.90;;;;;;5085619;28;20566;-80
2022/03/21 21:12:43;;;;;;;35.03;22.15;;;8.20;99.90;;;;;;5076774;28;20333;-81
2022/03/21 21:15:09;;;;;;;35.80;22.40;;;8.20;99.90;;;;;;5074913;28;20470;-80
2022/03/21 21:17:38;;;;;;;38.05;22.98;;;8.40;99.90;;;;;;5083651;28;20060;-78
2022/03/21 21:20:07;;;;;;;37.28;23.67;;;8.10;99.90;;;;;;5099634;28;20159;-79
2022/03/21 21:22:33;;;;;;;37.05;23.33;;;8.10;99.90;;;;;;5079270;28;20063;-80
2022/03/21 21:25:00;;;;;;;37.30;21.92;;;8.00;99.90;;;;;;5099622;28;20051;-80
2022/03/21 21:27:26;;;;;;;34.42;22.85;;;8.00;99.90;;;;;;5097541;27;20043;-80
2022/03/21 21:29:52;;;;;;;36.38;22.92;;;8.00;99.90;;;;;;5076125;28;20067;-80
2022/03/21 21:32:17;;;;;;;41.28;24.52;;;8.00;99.90;;;;;;5094770;28;20140;-80
2022/03/21 21:34:43;;;;;;;39.17;22.60;;;7.90;99.90;;;;;;5081135;28;20229;-80
2022/03/21 21:37:08;;;;;;;36.72;22.67;;;7.90;99.90;;;;;;5097133;28;20055;-80
2022/03/21 21:39:34;;;;;;;34.25;22.55;;;7.90;99.90;;;;;;5089996;28;20060;-80
2022/03/21 21:42:00;;;;;;;38.45;23.50;;;7.90;99.90;;;;;;5096077;28;20113;-80
2022/03/21 21:44:25;;;;;;;38.78;23.63;;;7.80;99.90;;;;;;5094238;28;20047;-80
2022/03/21 21:46:51;;;;;;;35.75;22.67;;;7.80;99.90;;;;;;5074496;28;20043;-77
2022/03/21 21:49:16;;;;;;;35.50;21.52;;;7.70;99.90;;;;;;5077095;28;20066;-80
2022/03/21 21:51:42;;;;;;;35.45;22.88;;;7.70;99.90;;;;;;5094925;27;20035;-80
2022/03/21 21:54:08;;;;;;;41.25;23.52;;;7.60;99.90;;;;;;5081516;28;20471;-80
2022/03/21 21:56:35;;;;;;;38.08;23.00;;;7.60;99.90;;;;;;5079365;28;20051;-80
2022/03/21 21:59:00;;;;;;;38.70;24.10;;;7.50;99.90;;;;;;5100746;28;20060;-79
2022/03/21 22:01:26;;;;;;;37.97;23.08;;;7.80;99.90;;;;;;5082192;28;20556;-80
2022/03/21 22:03:52;;;;;;;35.00;22.75;;;7.40;99.90;;;;;;5089222;28;20036;-80
2022/03/21 22:06:20;;;;;;;39.85;23.27;;;7.30;99.90;;;;;;5095627;28;20093;-80
2022/03/21 22:08:46;;;;;;;37.45;23.00;;;7.30;99.90;;;;;;5078016;28;20411;-80
2022/03/21 22:11:14;;;;;;;38.67;23.38;;;7.20;99.90;;;;;;5092078;28;20069;-80
2022/03/21 22:13:40;;;;;;;41.13;23.88;;;7.20;99.90;;;;;;5076316;28;20151;-81
2022/03/21 22:16:06;;;;;;;36.78;23.25;;;7.10;99.90;;;;;;5077742;28;20035;-81
2022/03/21 22:18:35;;;;;;;39.22;23.23;;;7.10;99.90;;;;;;5094580;27;20071;-80
2022/03/21 22:21:03;;;;;;;36.97;23.75;;;7.10;99.90;;;;;;5092933;28;20052;-80
2022/03/21 22:23:29;;;;;;;42.53;22.88;;;7.00;99.90;;;;;;5093646;28;20058;-81
2022/03/21 22:25:55;;;;;;;35.90;22.42;;;6.70;99.90;;;;;;5096243;27;20035;-80
2022/03/21 22:28:21;;;;;;;38.40;23.45;;;7.00;99.90;;;;;;5076735;28;20102;-80
2022/03/21 22:30:52;;;;;;;39.05;23.40;;;7.00;99.90;;;;;;5077802;28;20051;-80
2022/03/21 22:33:22;;;;;;;40.03;23.80;;;6.90;99.90;;;;;;5095233;28;20047;-80
2022/03/21 22:35:49;;;;;;;36.97;23.58;;;6.90;99.90;;;;;;5076502;28;20158;-80
2022/03/21 22:38:16;;;;;;;41.38;24.02;;;6.80;99.90;;;;;;5094824;28;20073;-80
2022/03/21 22:48:54;;;;;;;41.72;25.60;;;6.70;99.90;;;;;;5076191;28;19931;-80
2022/03/21 22:51:20;;;;;;;41.85;26.35;;;6.60;99.90;;;;;;5094962;28;20047;-80
2022/03/21 22:53:47;;;;;;;40.30;25.23;;;6.60;99.90;;;;;;5095035;28;20046;-81
2022/03/21 22:56:14;;;;;;;39.08;25.05;;;6.60;99.90;;;;;;5096167;27;20409;-80
2022/03/21 22:58:40;;;;;;;42.05;25.50;;;6.50;99.90;;;;;;5074935;28;20831;-80
2022/03/21 23:01:07;;;;;;;39.13;24.38;;;6.50;99.90;;;;;;5092227;28;20358;-80
2022/03/21 23:03:35;;;;;;;39.00;25.10;;;6.50;99.90;;;;;;5070754;28;20047;-80
2022/03/21 23:06:02;;;;;;;42.53;25.33;;;6.40;99.90;;;;;;5074432;28;20737;-80
2022/03/21 23:08:29;;;;;;;45.22;25.60;;;6.40;99.90;;;;;;5093406;28;20122;-80
2022/03/21 23:10:58;;;;;;;40.95;25.17;;;6.40;99.90;;;;;;5094330;28;20047;-80
2022/03/21 23:13:27;;;;;;;42.25;26.92;;;6.30;99.90;;;;;;5093193;28;20118;-81
2022/03/21 23:15:53;;;;;;;40.35;24.65;;;6.30;99.90;;;;;;5092578;28;20068;-80
2022/03/21 23:18:20;;;;;;;43.80;26.45;;;6.30;99.90;;;;;;5074664;28;20031;-80
2022/03/21 23:20:46;;;;;;;43.55;26.85;;;6.30;99.90;;;;;;5087581;28;20052;-80
2022/03/21 23:23:13;;;;;;;44.22;26.48;;;6.30;99.90;;;;;;5096018;28;20059;-80
2022/03/21 23:25:39;;;;;;;43.92;26.35;;;6.20;99.90;;;;;;5074482;28;20044;-80
2022/03/21 23:28:09;;;;;;;39.08;26.05;;;6.20;99.90;;;;;;5090907;28;20692;-80
2022/03/21 23:30:40;;;;;;;45.67;26.48;;;6.20;99.90;;;;;;5092266;28;20046;-80
2022/03/21 23:33:07;;;;;;;42.53;26.90;;;6.20;99.90;;;;;;5095990;28;20050;-80
2022/03/21 23:35:33;;;;;;;37.90;25.42;;;6.20;99.90;;;;;;5089807;28;20508;-80
2022/03/21 23:38:01;;;;;;;47.67;27.85;;;6.10;99.90;;;;;;5091726;28;20052;-80
2022/03/21 23:43:12;;;;;;;42.75;26.40;;;6.10;99.90;;;;;;5088795;28;20094;-80
2022/03/21 23:45:38;;;;;;;44.80;27.33;;;6.00;99.90;;;;;;5093334;28;20047;-80
2022/03/21 23:48:05;;;;;;;41.70;26.45;;;6.10;99.90;;;;;;5076132;28;20855;-80
2022/03/21 23:50:30;;;;;;;42.58;26.25;;;6.00;99.90;;;;;;5074102;28;20055;-80
2022/03/21 23:52:58;;;;;;;43.00;26.52;;;6.00;99.90;;;;;;5075766;28;20880;-80
2022/03/21 23:55:26;;;;;;;42.22;26.70;;;6.00;99.90;;;;;;5075403;28;20118;-80
2022/03/21 23:57:52;;;;;;;44.13;27.27;;;6.00;99.90;;;;;;5094730;27;20051;-80
